Anderson, South Carolina
Current Conditions -  °F | °C
As of 6:56 AM on Monday 22 Dec 2014 (Local Time) from KAND Reporting Station
Light Rain Light Rain  
Wind Chill: 37°   Ceiling: 600
Heat Index: 43°   Visibility: 4mi
Dew Point: 41°   Wind: 10mph
Humidity: 93%   Direction: 70°ENE
Pressure: 30.09"   Gusts: NA
Location:  34.5°N, 82.65°W
Report Text: KAND 221156Z AUTO 07009KT 4SM -RA BR OVC006 06/05 A3009 RMK AO2 SLP188 P0000 60001 70001 T00610050 10072 20061 51005
Loading
Personal Weather Stations






























Interactive Weather Map New forecast layout! Learn more

10-Day Weather Forecast

Advertisements
Track Severe Weather on mobile